sensor_id;sensor_type;location;lat;lon;timestamp;P1;durP1;ratioP1;P2;durP2;ratioP2
7563;SDS011;3823;53.586;10.040;2022-11-28T00:01:38;16.83;;;10.10;;
7563;SDS011;3823;53.586;10.040;2022-11-28T00:04:12;16.15;;;9.73;;
7563;SDS011;3823;53.586;10.040;2022-11-28T00:06:44;13.02;;;8.40;;
7563;SDS011;3823;53.586;10.040;2022-11-28T00:09:14;15.50;;;9.68;;
7563;SDS011;3823;53.586;10.040;2022-11-28T00:11:44;13.95;;;8.93;;
7563;SDS011;3823;53.586;10.040;2022-11-28T00:14:16;18.10;;;9.32;;
7563;SDS011;3823;53.586;10.040;2022-11-28T00:16:44;16.88;;;9.88;;
7563;SDS011;3823;53.586;10.040;2022-11-28T00:19:10;17.83;;;8.88;;
7563;SDS011;3823;53.586;10.040;2022-11-28T00:22:04;11.77;;;8.63;;
7563;SDS011;3823;53.586;10.040;2022-11-28T00:24:33;14.55;;;9.18;;
7563;SDS011;3823;53.586;10.040;2022-11-28T00:26:58;17.25;;;8.68;;
7563;SDS011;3823;53.586;10.040;2022-11-28T00:29:24;20.30;;;9.55;;
7563;SDS011;3823;53.586;10.040;2022-11-28T00:31:50;17.88;;;8.77;;
7563;SDS011;3823;53.586;10.040;2022-11-28T00:34:19;12.50;;;8.20;;
7563;SDS011;3823;53.586;10.040;2022-11-28T00:36:45;15.38;;;8.05;;
7563;SDS011;3823;53.586;10.040;2022-11-28T00:39:18;13.73;;;8.60;;
7563;SDS011;3823;53.586;10.040;2022-11-28T00:41:47;12.30;;;8.35;;
7563;SDS011;3823;53.586;10.040;2022-11-28T00:44:21;11.15;;;7.55;;
7563;SDS011;3823;53.586;10.040;2022-11-28T00:46:49;16.08;;;8.43;;
7563;SDS011;3823;53.586;10.040;2022-11-28T00:49:24;14.70;;;10.13;;
7563;SDS011;3823;53.586;10.040;2022-11-28T00:51:56;11.95;;;7.60;;
7563;SDS011;3823;53.586;10.040;2022-11-28T00:54:25;16.05;;;8.95;;
7563;SDS011;3823;53.586;10.040;2022-11-28T00:56:54;11.70;;;9.45;;
7563;SDS011;3823;53.586;10.040;2022-11-28T00:59:19;12.88;;;8.18;;
7563;SDS011;3823;53.586;10.040;2022-11-28T01:01:45;14.43;;;7.82;;
7563;SDS011;3823;53.586;10.040;2022-11-28T01:04:14;12.50;;;8.52;;
7563;SDS011;3823;53.586;10.040;2022-11-28T01:06:50;15.73;;;8.38;;
7563;SDS011;3823;53.586;10.040;2022-11-28T01:09:20;11.75;;;7.88;;
7563;SDS011;3823;53.586;10.040;2022-11-28T01:11:50;11.60;;;8.65;;
7563;SDS011;3823;53.586;10.040;2022-11-28T01:14:21;14.43;;;8.95;;
7563;SDS011;3823;53.586;10.040;2022-11-28T01:16:53;12.10;;;9.23;;
7563;SDS011;3823;53.586;10.040;2022-11-28T01:19:19;14.70;;;8.10;;
7563;SDS011;3823;53.586;10.040;2022-11-28T01:21:47;13.65;;;8.65;;
7563;SDS011;3823;53.586;10.040;2022-11-28T01:24:12;11.43;;;7.35;;
7563;SDS011;3823;53.586;10.040;2022-11-28T01:26:41;12.13;;;7.93;;
7563;SDS011;3823;53.586;10.040;2022-11-28T01:29:07;20.27;;;7.90;;
7563;SDS011;3823;53.586;10.040;2022-11-28T01:31:35;15.68;;;7.95;;
7563;SDS011;3823;53.586;10.040;2022-11-28T01:34:01;12.05;;;7.45;;
7563;SDS011;3823;53.586;10.040;2022-11-28T01:36:28;12.02;;;8.30;;
7563;SDS011;3823;53.586;10.040;2022-11-28T01:38:53;14.75;;;7.72;;
7563;SDS011;3823;53.586;10.040;2022-11-28T01:41:20;13.20;;;8.20;;
7563;SDS011;3823;53.586;10.040;2022-11-28T01:44:03;10.88;;;7.90;;
7563;SDS011;3823;53.586;10.040;2022-11-28T01:46:31;14.95;;;7.85;;
7563;SDS011;3823;53.586;10.040;2022-11-28T01:48:58;9.77;;;6.97;;
7563;SDS011;3823;53.586;10.040;2022-11-28T01:51:29;16.00;;;7.93;;
7563;SDS011;3823;53.586;10.040;2022-11-28T01:53:56;12.15;;;7.72;;
7563;SDS011;3823;53.586;10.040;2022-11-28T01:56:23;13.02;;;8.23;;
7563;SDS011;3823;53.586;10.040;2022-11-28T01:58:54;13.05;;;8.45;;
7563;SDS011;3823;53.586;10.040;2022-11-28T02:01:27;12.70;;;7.53;;
7563;SDS011;3823;53.586;10.040;2022-11-28T02:03:52;16.92;;;7.20;;
7563;SDS011;3823;53.586;10.040;2022-11-28T02:06:20;10.15;;;6.80;;
7563;SDS011;3823;53.586;10.040;2022-11-28T02:08:51;15.02;;;9.32;;
7563;SDS011;3823;53.586;10.040;2022-11-28T02:11:38;15.95;;;7.68;;
7563;SDS011;3823;53.586;10.040;2022-11-28T02:14:29;12.90;;;7.82;;
7563;SDS011;3823;53.586;10.040;2022-11-28T02:26:08;11.40;;;6.70;;
7563;SDS011;3823;53.586;10.040;2022-11-28T02:28:50;19.58;;;8.57;;
7563;SDS011;3823;53.586;10.040;2022-11-28T02:34:57;19.08;;;8.07;;
7563;SDS011;3823;53.586;10.040;2022-11-28T02:40:25;10.43;;;7.10;;
7563;SDS011;3823;53.586;10.040;2022-11-28T02:45:54;13.50;;;8.23;;
7563;SDS011;3823;53.586;10.040;2022-11-28T02:53:59;13.20;;;7.82;;
7563;SDS011;3823;53.586;10.040;2022-11-28T02:56:26;15.90;;;8.30;;
7563;SDS011;3823;53.586;10.040;2022-11-28T02:58:52;11.00;;;7.43;;
7563;SDS011;3823;53.586;10.040;2022-11-28T03:01:20;13.55;;;8.57;;
7563;SDS011;3823;53.586;10.040;2022-11-28T03:12:07;12.52;;;7.60;;
7563;SDS011;3823;53.586;10.040;2022-11-28T03:17:30;14.88;;;7.45;;
7563;SDS011;3823;53.586;10.040;2022-11-28T03:23:00;12.90;;;7.20;;
7563;SDS011;3823;53.586;10.040;2022-11-28T03:31:15;12.45;;;7.57;;
7563;SDS011;3823;53.586;10.040;2022-11-28T03:33:54;9.52;;;6.60;;
7563;SDS011;3823;53.586;10.040;2022-11-28T03:36:26;11.55;;;7.18;;
7563;SDS011;3823;53.586;10.040;2022-11-28T03:38:57;10.57;;;6.60;;
7563;SDS011;3823;53.586;10.040;2022-11-28T03:41:32;10.70;;;6.90;;
7563;SDS011;3823;53.586;10.040;2022-11-28T03:44:02;8.43;;;6.20;;
7563;SDS011;3823;53.586;10.040;2022-11-28T03:46:35;11.50;;;7.57;;
7563;SDS011;3823;53.586;10.040;2022-11-28T03:49:05;14.98;;;8.55;;
7563;SDS011;3823;53.586;10.040;2022-11-28T03:51:36;13.85;;;7.60;;
7563;SDS011;3823;53.586;10.040;2022-11-28T03:54:54;10.45;;;6.90;;
7563;SDS011;3823;53.586;10.040;2022-11-28T03:59:48;8.55;;;7.18;;
7563;SDS011;3823;53.586;10.040;2022-11-28T04:04:54;9.77;;;7.38;;
7563;SDS011;3823;53.586;10.040;2022-11-28T04:10:28;9.85;;;6.68;;
7563;SDS011;3823;53.586;10.040;2022-11-28T04:15:46;11.13;;;7.68;;
7563;SDS011;3823;53.586;10.040;2022-11-28T04:21:02;11.52;;;6.65;;
7563;SDS011;3823;53.586;10.040;2022-11-28T04:23:34;11.20;;;7.80;;
7563;SDS011;3823;53.586;10.040;2022-11-28T04:26:37;12.18;;;7.40;;
7563;SDS011;3823;53.586;10.040;2022-11-28T04:28:59;11.75;;;7.05;;
7563;SDS011;3823;53.586;10.040;2022-11-28T04:31:28;17.30;;;8.55;;
7563;SDS011;3823;53.586;10.040;2022-11-28T04:33:56;12.18;;;7.53;;
7563;SDS011;3823;53.586;10.040;2022-11-28T04:36:25;11.50;;;7.03;;
7563;SDS011;3823;53.586;10.040;2022-11-28T04:38:51;11.02;;;7.57;;
7563;SDS011;3823;53.586;10.040;2022-11-28T04:41:25;16.25;;;8.90;;
7563;SDS011;3823;53.586;10.040;2022-11-28T04:46:50;9.95;;;7.78;;
7563;SDS011;3823;53.586;10.040;2022-11-28T04:49:18;10.65;;;7.28;;
7563;SDS011;3823;53.586;10.040;2022-11-28T04:51:49;14.23;;;7.65;;
7563;SDS011;3823;53.586;10.040;2022-11-28T04:57:40;10.85;;;7.40;;
7563;SDS011;3823;53.586;10.040;2022-11-28T05:00:10;9.95;;;6.63;;
7563;SDS011;3823;53.586;10.040;2022-11-28T05:02:41;11.88;;;8.02;;
7563;SDS011;3823;53.586;10.040;2022-11-28T05:05:10;14.13;;;8.10;;
7563;SDS011;3823;53.586;10.040;2022-11-28T05:07:38;10.30;;;8.20;;
7563;SDS011;3823;53.586;10.040;2022-11-28T05:10:05;11.38;;;7.45;;
7563;SDS011;3823;53.586;10.040;2022-11-28T05:12:31;11.20;;;8.45;;
7563;SDS011;3823;53.586;10.040;2022-11-28T05:14:56;12.85;;;7.18;;
7563;SDS011;3823;53.586;10.040;2022-11-28T05:17:22;9.95;;;6.90;;
7563;SDS011;3823;53.586;10.040;2022-11-28T05:19:47;9.60;;;7.20;;
7563;SDS011;3823;53.586;10.040;2022-11-28T05:22:13;10.63;;;7.80;;
7563;SDS011;3823;53.586;10.040;2022-11-28T05:24:38;13.80;;;8.38;;
7563;SDS011;3823;53.586;10.040;2022-11-28T05:27:04;10.63;;;7.07;;
7563;SDS011;3823;53.586;10.040;2022-11-28T05:29:31;11.13;;;7.20;;
7563;SDS011;3823;53.586;10.040;2022-11-28T05:31:56;13.90;;;7.53;;
7563;SDS011;3823;53.586;10.040;2022-11-28T05:34:22;13.75;;;8.20;;
7563;SDS011;3823;53.586;10.040;2022-11-28T05:36:47;14.80;;;8.68;;
7563;SDS011;3823;53.586;10.040;2022-11-28T05:39:13;13.68;;;8.00;;
7563;SDS011;3823;53.586;10.040;2022-11-28T05:41:38;14.07;;;7.35;;
7563;SDS011;3823;53.586;10.040;2022-11-28T05:44:04;13.38;;;8.05;;
7563;SDS011;3823;53.586;10.040;2022-11-28T05:46:29;11.82;;;8.60;;
7563;SDS011;3823;53.586;10.040;2022-11-28T05:48:55;10.85;;;7.68;;
7563;SDS011;3823;53.586;10.040;2022-11-28T05:51:21;11.73;;;8.00;;
7563;SDS011;3823;53.586;10.040;2022-11-28T05:53:47;14.25;;;8.90;;
7563;SDS011;3823;53.586;10.040;2022-11-28T05:56:13;15.55;;;8.18;;
7563;SDS011;3823;53.586;10.040;2022-11-28T05:58:41;18.23;;;8.68;;
7563;SDS011;3823;53.586;10.040;2022-11-28T06:01:08;16.05;;;9.60;;
7563;SDS011;3823;53.586;10.040;2022-11-28T06:03:41;10.15;;;7.10;;
7563;SDS011;3823;53.586;10.040;2022-11-28T06:06:14;16.17;;;8.35;;
7563;SDS011;3823;53.586;10.040;2022-11-28T06:08:43;10.65;;;7.95;;
7563;SDS011;3823;53.586;10.040;2022-11-28T06:11:10;12.60;;;8.63;;
7563;SDS011;3823;53.586;10.040;2022-11-28T06:13:36;13.30;;;9.02;;
7563;SDS011;3823;53.586;10.040;2022-11-28T06:16:03;11.93;;;7.47;;
7563;SDS011;3823;53.586;10.040;2022-11-28T06:18:31;15.02;;;8.57;;
7563;SDS011;3823;53.586;10.040;2022-11-28T06:20:59;10.85;;;7.95;;
7563;SDS011;3823;53.586;10.040;2022-11-28T06:23:26;14.57;;;8.88;;
7563;SDS011;3823;53.586;10.040;2022-11-28T06:25:52;17.30;;;10.60;;
7563;SDS011;3823;53.586;10.040;2022-11-28T06:28:17;12.73;;;8.05;;
7563;SDS011;3823;53.586;10.040;2022-11-28T06:30:43;15.02;;;8.43;;
7563;SDS011;3823;53.586;10.040;2022-11-28T06:33:08;14.20;;;8.15;;
7563;SDS011;3823;53.586;10.040;2022-11-28T06:35:34;12.98;;;8.38;;
7563;SDS011;3823;53.586;10.040;2022-11-28T06:37:59;12.68;;;8.10;;
7563;SDS011;3823;53.586;10.040;2022-11-28T06:40:25;18.27;;;9.55;;
7563;SDS011;3823;53.586;10.040;2022-11-28T06:42:50;12.27;;;7.78;;
7563;SDS011;3823;53.586;10.040;2022-11-28T06:45:16;10.15;;;7.82;;
7563;SDS011;3823;53.586;10.040;2022-11-28T06:47:41;13.90;;;7.50;;
7563;SDS011;3823;53.586;10.040;2022-11-28T06:50:07;17.63;;;10.18;;
7563;SDS011;3823;53.586;10.040;2022-11-28T06:52:34;14.25;;;8.60;;
7563;SDS011;3823;53.586;10.040;2022-11-28T06:55:00;16.08;;;9.68;;
7563;SDS011;3823;53.586;10.040;2022-11-28T06:57:25;12.60;;;8.25;;
7563;SDS011;3823;53.586;10.040;2022-11-28T06:59:51;14.45;;;9.23;;
7563;SDS011;3823;53.586;10.040;2022-11-28T07:02:17;13.80;;;9.05;;
7563;SDS011;3823;53.586;10.040;2022-11-28T07:04:42;11.13;;;8.68;;
7563;SDS011;3823;53.586;10.040;2022-11-28T07:07:08;10.68;;;8.73;;
7563;SDS011;3823;53.586;10.040;2022-11-28T07:09:33;15.05;;;9.30;;
7563;SDS011;3823;53.586;10.040;2022-11-28T07:11:59;14.05;;;7.97;;
7563;SDS011;3823;53.586;10.040;2022-11-28T07:14:24;16.35;;;7.05;;
7563;SDS011;3823;53.586;10.040;2022-11-28T07:16:50;16.88;;;9.57;;
7563;SDS011;3823;53.586;10.040;2022-11-28T07:19:16;11.93;;;8.20;;
7563;SDS011;3823;53.586;10.040;2022-11-28T07:21:46;23.35;;;9.68;;
7563;SDS011;3823;53.586;10.040;2022-11-28T07:24:13;12.13;;;8.68;;
7563;SDS011;3823;53.586;10.040;2022-11-28T07:26:38;17.33;;;8.82;;
7563;SDS011;3823;53.586;10.040;2022-11-28T07:29:04;15.25;;;8.88;;
7563;SDS011;3823;53.586;10.040;2022-11-28T07:31:31;12.25;;;8.05;;
7563;SDS011;3823;53.586;10.040;2022-11-28T07:33:58;14.70;;;8.73;;
7563;SDS011;3823;53.586;10.040;2022-11-28T07:36:25;13.18;;;10.52;;
7563;SDS011;3823;53.586;10.040;2022-11-28T07:38:53;15.30;;;9.73;;
7563;SDS011;3823;53.586;10.040;2022-11-28T07:41:20;21.08;;;9.50;;
7563;SDS011;3823;53.586;10.040;2022-11-28T07:43:47;16.25;;;10.43;;
7563;SDS011;3823;53.586;10.040;2022-11-28T07:46:14;17.15;;;10.38;;
7563;SDS011;3823;53.586;10.040;2022-11-28T07:48:41;14.50;;;9.68;;
7563;SDS011;3823;53.586;10.040;2022-11-28T07:51:08;17.23;;;10.50;;
7563;SDS011;3823;53.586;10.040;2022-11-28T07:53:39;14.82;;;9.50;;
7563;SDS011;3823;53.586;10.040;2022-11-28T07:56:06;13.32;;;9.82;;
7563;SDS011;3823;53.586;10.040;2022-11-28T07:58:33;19.63;;;11.55;;
7563;SDS011;3823;53.586;10.040;2022-11-28T08:01:06;20.10;;;11.57;;
7563;SDS011;3823;53.586;10.040;2022-11-28T08:03:36;13.57;;;10.65;;
7563;SDS011;3823;53.586;10.040;2022-11-28T08:06:02;14.98;;;9.63;;
7563;SDS011;3823;53.586;10.040;2022-11-28T08:08:29;14.93;;;9.70;;
7563;SDS011;3823;53.586;10.040;2022-11-28T08:10:58;16.20;;;9.68;;
7563;SDS011;3823;53.586;10.040;2022-11-28T08:13:25;19.33;;;10.35;;
7563;SDS011;3823;53.586;10.040;2022-11-28T08:15:51;16.60;;;10.55;;
7563;SDS011;3823;53.586;10.040;2022-11-28T08:18:17;21.30;;;10.70;;
7563;SDS011;3823;53.586;10.040;2022-11-28T08:20:42;12.80;;;9.50;;
7563;SDS011;3823;53.586;10.040;2022-11-28T08:23:08;23.02;;;11.50;;
7563;SDS011;3823;53.586;10.040;2022-11-28T08:25:33;17.80;;;9.55;;
7563;SDS011;3823;53.586;10.040;2022-11-28T08:27:59;22.33;;;11.38;;
7563;SDS011;3823;53.586;10.040;2022-11-28T08:30:25;17.48;;;10.45;;
7563;SDS011;3823;53.586;10.040;2022-11-28T08:32:50;19.10;;;11.77;;
7563;SDS011;3823;53.586;10.040;2022-11-28T08:35:16;19.23;;;10.80;;
7563;SDS011;3823;53.586;10.040;2022-11-28T08:37:42;15.27;;;9.48;;
7563;SDS011;3823;53.586;10.040;2022-11-28T08:40:07;22.75;;;10.80;;
7563;SDS011;3823;53.586;10.040;2022-11-28T08:42:33;18.70;;;10.07;;
7563;SDS011;3823;53.586;10.040;2022-11-28T08:44:59;20.65;;;13.20;;
7563;SDS011;3823;53.586;10.040;2022-11-28T08:47:24;16.90;;;10.15;;
7563;SDS011;3823;53.586;10.040;2022-11-28T08:49:50;15.05;;;10.38;;
7563;SDS011;3823;53.586;10.040;2022-11-28T08:52:15;18.10;;;11.40;;
7563;SDS011;3823;53.586;10.040;2022-11-28T08:54:41;18.63;;;12.63;;
7563;SDS011;3823;53.586;10.040;2022-11-28T08:57:07;16.30;;;10.23;;
7563;SDS011;3823;53.586;10.040;2022-11-28T08:59:33;18.35;;;10.82;;
7563;SDS011;3823;53.586;10.040;2022-11-28T09:01:58;18.40;;;10.40;;
7563;SDS011;3823;53.586;10.040;2022-11-28T09:04:24;14.85;;;10.25;;
7563;SDS011;3823;53.586;10.040;2022-11-28T09:06:49;15.32;;;9.73;;
7563;SDS011;3823;53.586;10.040;2022-11-28T09:09:15;20.20;;;10.77;;
7563;SDS011;3823;53.586;10.040;2022-11-28T09:11:41;26.35;;;10.43;;
7563;SDS011;3823;53.586;10.040;2022-11-28T09:14:07;18.25;;;9.80;;
7563;SDS011;3823;53.586;10.040;2022-11-28T09:16:33;19.67;;;11.35;;
7563;SDS011;3823;53.586;10.040;2022-11-28T09:18:58;14.88;;;10.65;;
7563;SDS011;3823;53.586;10.040;2022-11-28T09:21:24;16.17;;;9.38;;
7563;SDS011;3823;53.586;10.040;2022-11-28T09:23:50;21.02;;;10.80;;
7563;SDS011;3823;53.586;10.040;2022-11-28T09:26:19;16.23;;;10.18;;
7563;SDS011;3823;53.586;10.040;2022-11-28T09:28:46;16.70;;;10.68;;
7563;SDS011;3823;53.586;10.040;2022-11-28T09:31:12;20.30;;;12.70;;
7563;SDS011;3823;53.586;10.040;2022-11-28T09:33:39;19.50;;;11.00;;
7563;SDS011;3823;53.586;10.040;2022-11-28T09:36:07;18.52;;;11.00;;
7563;SDS011;3823;53.586;10.040;2022-11-28T09:38:34;16.05;;;10.13;;
7563;SDS011;3823;53.586;10.040;2022-11-28T09:41:01;16.45;;;9.75;;
7563;SDS011;3823;53.586;10.040;2022-11-28T09:43:32;21.85;;;11.65;;
7563;SDS011;3823;53.586;10.040;2022-11-28T09:46:01;20.35;;;10.85;;
7563;SDS011;3823;53.586;10.040;2022-11-28T09:48:34;16.95;;;11.23;;
7563;SDS011;3823;53.586;10.040;2022-11-28T09:51:10;15.07;;;10.10;;
7563;SDS011;3823;53.586;10.040;2022-11-28T09:56:37;17.00;;;10.00;;
7563;SDS011;3823;53.586;10.040;2022-11-28T09:59:05;21.77;;;11.13;;
7563;SDS011;3823;53.586;10.040;2022-11-28T10:02:00;19.83;;;11.07;;
7563;SDS011;3823;53.586;10.040;2022-11-28T10:05:00;19.67;;;11.13;;
7563;SDS011;3823;53.586;10.040;2022-11-28T10:13:15;19.30;;;10.13;;
7563;SDS011;3823;53.586;10.040;2022-11-28T10:15:52;16.73;;;10.60;;
7563;SDS011;3823;53.586;10.040;2022-11-28T10:18:49;14.73;;;9.52;;
7563;SDS011;3823;53.586;10.040;2022-11-28T10:21:26;15.93;;;9.40;;
7563;SDS011;3823;53.586;10.040;2022-11-28T10:24:13;25.20;;;11.75;;
7563;SDS011;3823;53.586;10.040;2022-11-28T10:26:43;13.68;;;9.02;;
7563;SDS011;3823;53.586;10.040;2022-11-28T10:29:32;15.05;;;9.68;;
7563;SDS011;3823;53.586;10.040;2022-11-28T10:32:04;18.50;;;9.38;;
7563;SDS011;3823;53.586;10.040;2022-11-28T10:34:35;18.25;;;11.32;;
7563;SDS011;3823;53.586;10.040;2022-11-28T10:37:19;21.67;;;10.13;;
7563;SDS011;3823;53.586;10.040;2022-11-28T10:39:53;18.38;;;12.05;;
7563;SDS011;3823;53.586;10.040;2022-11-28T10:45:23;14.57;;;9.85;;
7563;SDS011;3823;53.586;10.040;2022-11-28T10:53:40;14.15;;;9.48;;
7563;SDS011;3823;53.586;10.040;2022-11-28T10:56:35;15.27;;;9.05;;
7563;SDS011;3823;53.586;10.040;2022-11-28T11:02:20;18.90;;;9.77;;
7563;SDS011;3823;53.586;10.040;2022-11-28T11:04:54;15.93;;;10.00;;
7563;SDS011;3823;53.586;10.040;2022-11-28T11:07:24;18.13;;;10.57;;
7563;SDS011;3823;53.586;10.040;2022-11-28T11:09:57;17.67;;;10.85;;
7563;SDS011;3823;53.586;10.040;2022-11-28T11:12:35;17.25;;;9.40;;
7563;SDS011;3823;53.586;10.040;2022-11-28T11:15:21;17.83;;;10.30;;
7563;SDS011;3823;53.586;10.040;2022-11-28T11:17:56;15.75;;;9.43;;
7563;SDS011;3823;53.586;10.040;2022-11-28T11:22:58;19.83;;;10.80;;
7563;SDS011;3823;53.586;10.040;2022-11-28T11:25:26;14.45;;;9.50;;
7563;SDS011;3823;53.586;10.040;2022-11-28T11:27:54;15.38;;;9.35;;
7563;SDS011;3823;53.586;10.040;2022-11-28T11:32:58;18.50;;;10.07;;
7563;SDS011;3823;53.586;10.040;2022-11-28T11:35:30;18.02;;;10.65;;
7563;SDS011;3823;53.586;10.040;2022-11-28T11:38:16;21.65;;;11.00;;
7563;SDS011;3823;53.586;10.040;2022-11-28T11:40:46;15.77;;;9.98;;
7563;SDS011;3823;53.586;10.040;2022-11-28T11:43:31;24.48;;;11.73;;
7563;SDS011;3823;53.586;10.040;2022-11-28T11:46:18;15.48;;;10.65;;
7563;SDS011;3823;53.586;10.040;2022-11-28T11:53:47;16.77;;;11.00;;
7563;SDS011;3823;53.586;10.040;2022-11-28T11:56:13;17.30;;;10.07;;
7563;SDS011;3823;53.586;10.040;2022-11-28T11:58:43;19.30;;;10.20;;
7563;SDS011;3823;53.586;10.040;2022-11-28T12:01:12;23.90;;;11.32;;
7563;SDS011;3823;53.586;10.040;2022-11-28T12:04:02;17.20;;;10.55;;
7563;SDS011;3823;53.586;10.040;2022-11-28T12:06:33;20.02;;;10.25;;
7563;SDS011;3823;53.586;10.040;2022-11-28T12:09:08;18.20;;;10.52;;
7563;SDS011;3823;53.586;10.040;2022-11-28T12:11:43;18.50;;;10.35;;
7563;SDS011;3823;53.586;10.040;2022-11-28T12:19:58;23.65;;;11.55;;
7563;SDS011;3823;53.586;10.040;2022-11-28T12:22:43;16.00;;;10.27;;
7563;SDS011;3823;53.586;10.040;2022-11-28T12:36:41;23.13;;;11.65;;
7563;SDS011;3823;53.586;10.040;2022-11-28T12:45:06;18.67;;;10.63;;
7563;SDS011;3823;53.586;10.040;2022-11-28T12:50:17;17.52;;;10.00;;
7563;SDS011;3823;53.586;10.040;2022-11-28T12:58:32;18.00;;;10.10;;
7563;SDS011;3823;53.586;10.040;2022-11-28T13:04:20;26.63;;;12.15;;
7563;SDS011;3823;53.586;10.040;2022-11-28T13:07:32;24.67;;;13.57;;
7563;SDS011;3823;53.586;10.040;2022-11-28T13:10:30;18.13;;;11.05;;
7563;SDS011;3823;53.586;10.040;2022-11-28T13:13:11;16.42;;;10.43;;
7563;SDS011;3823;53.586;10.040;2022-11-28T13:18:43;20.00;;;11.38;;
7563;SDS011;3823;53.586;10.040;2022-11-28T13:23:53;18.35;;;10.18;;
7563;SDS011;3823;53.586;10.040;2022-11-28T13:26:39;17.20;;;10.82;;
7563;SDS011;3823;53.586;10.040;2022-11-28T13:31:57;18.33;;;10.80;;
7563;SDS011;3823;53.586;10.040;2022-11-28T13:34:35;21.80;;;11.88;;
7563;SDS011;3823;53.586;10.040;2022-11-28T13:37:12;21.65;;;11.73;;
7563;SDS011;3823;53.586;10.040;2022-11-28T13:39:51;16.67;;;10.75;;
7563;SDS011;3823;53.586;10.040;2022-11-28T13:42:28;18.95;;;10.68;;
7563;SDS011;3823;53.586;10.040;2022-11-28T13:45:22;24.10;;;11.27;;
7563;SDS011;3823;53.586;10.040;2022-11-28T13:47:58;20.80;;;12.07;;
7563;SDS011;3823;53.586;10.040;2022-11-28T13:50:31;19.58;;;10.68;;
7563;SDS011;3823;53.586;10.040;2022-11-28T13:58:16;18.65;;;11.40;;
7563;SDS011;3823;53.586;10.040;2022-11-28T14:00:43;17.23;;;10.65;;
7563;SDS011;3823;53.586;10.040;2022-11-28T14:03:46;16.77;;;10.48;;
7563;SDS011;3823;53.586;10.040;2022-11-28T14:06:43;18.40;;;11.05;;
7563;SDS011;3823;53.586;10.040;2022-11-28T14:25:51;24.10;;;11.70;;
7563;SDS011;3823;53.586;10.040;2022-11-28T14:33:41;18.13;;;11.82;;
7563;SDS011;3823;53.586;10.040;2022-11-28T14:36:23;18.45;;;10.63;;
7563;SDS011;3823;53.586;10.040;2022-11-28T14:44:44;18.35;;;10.95;;
7563;SDS011;3823;53.586;10.040;2022-11-28T14:52:28;23.73;;;12.15;;
7563;SDS011;3823;53.586;10.040;2022-11-28T14:54:54;23.55;;;11.07;;
7563;SDS011;3823;53.586;10.040;2022-11-28T14:57:28;20.95;;;12.30;;
7563;SDS011;3823;53.586;10.040;2022-11-28T14:59:57;19.85;;;12.27;;
7563;SDS011;3823;53.586;10.040;2022-11-28T15:02:33;19.23;;;11.82;;
7563;SDS011;3823;53.586;10.040;2022-11-28T15:05:18;21.30;;;12.15;;
7563;SDS011;3823;53.586;10.040;2022-11-28T15:13:09;22.33;;;12.30;;
7563;SDS011;3823;53.586;10.040;2022-11-28T15:15:56;25.13;;;12.85;;
7563;SDS011;3823;53.586;10.040;2022-11-28T15:18:22;25.23;;;12.73;;
7563;SDS011;3823;53.586;10.040;2022-11-28T15:20:51;26.77;;;13.32;;
7563;SDS011;3823;53.586;10.040;2022-11-28T15:25:53;25.40;;;13.00;;
7563;SDS011;3823;53.586;10.040;2022-11-28T15:28:21;21.35;;;12.23;;
7563;SDS011;3823;53.586;10.040;2022-11-28T15:30:53;19.83;;;12.27;;
7563;SDS011;3823;53.586;10.040;2022-11-28T15:33:20;23.15;;;13.40;;
7563;SDS011;3823;53.586;10.040;2022-11-28T15:35:55;21.98;;;12.65;;
7563;SDS011;3823;53.586;10.040;2022-11-28T15:38:34;23.90;;;13.52;;
7563;SDS011;3823;53.586;10.040;2022-11-28T15:41:01;26.40;;;13.43;;
7563;SDS011;3823;53.586;10.040;2022-11-28T15:43:27;22.85;;;13.52;;
7563;SDS011;3823;53.586;10.040;2022-11-28T15:45:56;21.55;;;13.38;;
7563;SDS011;3823;53.586;10.040;2022-11-28T15:51:00;25.20;;;14.55;;
7563;SDS011;3823;53.586;10.040;2022-11-28T15:53:28;24.20;;;13.57;;
7563;SDS011;3823;53.586;10.040;2022-11-28T15:56:06;26.25;;;14.57;;
7563;SDS011;3823;53.586;10.040;2022-11-28T15:58:36;25.95;;;14.00;;
7563;SDS011;3823;53.586;10.040;2022-11-28T16:01:04;26.98;;;13.68;;
7563;SDS011;3823;53.586;10.040;2022-11-28T16:03:46;23.35;;;13.07;;
7563;SDS011;3823;53.586;10.040;2022-11-28T16:06:49;27.30;;;15.38;;
7563;SDS011;3823;53.586;10.040;2022-11-28T16:11:42;23.60;;;14.07;;
7563;SDS011;3823;53.586;10.040;2022-11-28T16:14:13;24.17;;;13.73;;
7563;SDS011;3823;53.586;10.040;2022-11-28T16:16:43;24.52;;;13.77;;
7563;SDS011;3823;53.586;10.040;2022-11-28T16:19:17;22.25;;;13.93;;
7563;SDS011;3823;53.586;10.040;2022-11-28T16:21:55;26.42;;;14.45;;
7563;SDS011;3823;53.586;10.040;2022-11-28T16:24:25;27.40;;;14.48;;
7563;SDS011;3823;53.586;10.040;2022-11-28T16:26:55;31.65;;;15.85;;
7563;SDS011;3823;53.586;10.040;2022-11-28T16:29:27;26.40;;;14.40;;
7563;SDS011;3823;53.586;10.040;2022-11-28T16:32:07;26.95;;;16.65;;
7563;SDS011;3823;53.586;10.040;2022-11-28T16:34:43;27.60;;;16.35;;
7563;SDS011;3823;53.586;10.040;2022-11-28T16:37:15;22.42;;;13.07;;
7563;SDS011;3823;53.586;10.040;2022-11-28T16:39:44;24.40;;;14.38;;
7563;SDS011;3823;53.586;10.040;2022-11-28T16:42:14;28.75;;;14.32;;
7563;SDS011;3823;53.586;10.040;2022-11-28T16:44:41;27.27;;;15.65;;
7563;SDS011;3823;53.586;10.040;2022-11-28T16:47:20;30.20;;;15.52;;
7563;SDS011;3823;53.586;10.040;2022-11-28T16:52:50;26.38;;;15.27;;
7563;SDS011;3823;53.586;10.040;2022-11-28T16:58:15;28.63;;;14.43;;
7563;SDS011;3823;53.586;10.040;2022-11-28T17:00:42;27.58;;;15.15;;
7563;SDS011;3823;53.586;10.040;2022-11-28T17:03:38;29.27;;;15.90;;
7563;SDS011;3823;53.586;10.040;2022-11-28T17:06:04;30.00;;;16.35;;
7563;SDS011;3823;53.586;10.040;2022-11-28T17:08:37;27.25;;;14.90;;
7563;SDS011;3823;53.586;10.040;2022-11-28T17:11:02;32.22;;;15.80;;
7563;SDS011;3823;53.586;10.040;2022-11-28T17:13:28;29.42;;;14.40;;
7563;SDS011;3823;53.586;10.040;2022-11-28T17:15:55;29.63;;;14.93;;
7563;SDS011;3823;53.586;10.040;2022-11-28T17:18:26;29.27;;;16.75;;
7563;SDS011;3823;53.586;10.040;2022-11-28T17:20:52;27.50;;;15.18;;
7563;SDS011;3823;53.586;10.040;2022-11-28T17:23:20;28.17;;;15.60;;
7563;SDS011;3823;53.586;10.040;2022-11-28T17:25:49;26.85;;;14.40;;
7563;SDS011;3823;53.586;10.040;2022-11-28T17:28:15;25.65;;;15.10;;
7563;SDS011;3823;53.586;10.040;2022-11-28T17:30:41;28.58;;;15.00;;
7563;SDS011;3823;53.586;10.040;2022-11-28T17:33:06;28.27;;;15.73;;
7563;SDS011;3823;53.586;10.040;2022-11-28T17:35:35;29.00;;;15.88;;
7563;SDS011;3823;53.586;10.040;2022-11-28T17:38:05;27.90;;;15.30;;
7563;SDS011;3823;53.586;10.040;2022-11-28T17:40:30;28.05;;;15.85;;
7563;SDS011;3823;53.586;10.040;2022-11-28T17:43:00;28.80;;;16.10;;
7563;SDS011;3823;53.586;10.040;2022-11-28T17:45:26;27.83;;;13.23;;
7563;SDS011;3823;53.586;10.040;2022-11-28T17:47:54;32.28;;;15.85;;
7563;SDS011;3823;53.586;10.040;2022-11-28T17:50:23;30.65;;;16.60;;
7563;SDS011;3823;53.586;10.040;2022-11-28T17:52:48;28.42;;;17.00;;
7563;SDS011;3823;53.586;10.040;2022-11-28T17:55:14;29.70;;;16.27;;
7563;SDS011;3823;53.586;10.040;2022-11-28T17:57:44;26.70;;;15.13;;
7563;SDS011;3823;53.586;10.040;2022-11-28T18:00:13;29.60;;;16.25;;
7563;SDS011;3823;53.586;10.040;2022-11-28T18:02:42;24.67;;;14.25;;
7563;SDS011;3823;53.586;10.040;2022-11-28T18:05:08;31.25;;;16.75;;
7563;SDS011;3823;53.586;10.040;2022-11-28T18:07:34;26.42;;;15.07;;
7563;SDS011;3823;53.586;10.040;2022-11-28T18:09:59;27.13;;;14.77;;
7563;SDS011;3823;53.586;10.040;2022-11-28T18:12:25;30.95;;;17.10;;
7563;SDS011;3823;53.586;10.040;2022-11-28T18:14:50;30.30;;;15.23;;
7563;SDS011;3823;53.586;10.040;2022-11-28T18:17:16;29.08;;;16.45;;